createdAt,value
2022-11-06T00:00:32.154Z,95474.63
2022-11-06T00:03:01.826Z,95480.63
2022-11-06T00:05:48.522Z,95472.31
2022-11-06T00:08:17.072Z,95479.53
2022-11-06T00:10:44.968Z,95471.53
2022-11-06T00:13:12.884Z,95468.75
2022-11-06T00:15:42.174Z,95462.38
2022-11-06T00:18:10.264Z,95460.38
2022-11-06T00:20:38.631Z,95460.78
2022-11-06T00:23:06.565Z,95446.41
2022-11-06T00:25:34.509Z,95446.06
2022-11-06T00:28:02.530Z,95448.78
2022-11-06T00:30:30.459Z,95435.22
2022-11-06T00:33:00.477Z,95442.78
2022-11-06T00:35:28.479Z,95432.72
2022-11-06T00:37:56.899Z,95433.09
2022-11-06T00:40:24.838Z,95441.06
2022-11-06T00:42:58.479Z,95436.56
2022-11-06T00:45:26.987Z,95423.88
2022-11-06T00:47:54.886Z,95435.47
2022-11-06T00:50:26.518Z,95433.09
2022-11-06T00:52:55.901Z,95429.91
2022-11-06T00:55:23.859Z,95432.31
2022-11-06T00:57:52.290Z,95422.31
2022-11-06T01:00:20.561Z,95420.72
2022-11-06T01:02:48.883Z,95422.34
2022-11-06T01:05:17.543Z,95413.16
2022-11-06T01:07:46.843Z,95415.53
2022-11-06T01:10:15.272Z,95418.66
2022-11-06T01:12:43.180Z,95416.88
2022-11-06T01:15:11.755Z,95412.34
2022-11-06T01:17:39.646Z,95415.28
2022-11-06T01:20:08.549Z,95406.00
2022-11-06T01:22:36.523Z,95391.84
2022-11-06T01:25:06.934Z,95382.69
2022-11-06T01:27:34.859Z,95369.53
2022-11-06T01:30:03.194Z,95363.34
2022-11-06T01:32:31.116Z,95370.75
2022-11-06T01:34:58.998Z,95385.13
2022-11-06T01:37:26.909Z,95391.88
2022-11-06T01:39:54.801Z,95387.84
2022-11-06T01:42:24.208Z,95388.13
2022-11-06T01:45:27.188Z,95396.78
2022-11-06T01:47:55.150Z,95385.69
2022-11-06T01:50:23.493Z,95388.16
2022-11-06T01:52:52.563Z,95382.66
2022-11-06T01:55:25.158Z,95377.47
2022-11-06T01:57:56.425Z,95363.91
2022-11-06T02:00:24.836Z,95365.13
2022-11-06T02:02:53.281Z,95361.72
2022-11-06T02:05:21.899Z,95360.72
2022-11-06T02:07:50.065Z,95349.94
2022-11-06T02:10:18.310Z,95348.34
2022-11-06T02:12:59.724Z,95343.16
2022-11-06T02:15:40.264Z,95337.97
2022-11-06T02:18:24.424Z,95325.19
2022-11-06T02:21:10.378Z,95314.03
2022-11-06T02:23:50.362Z,95314.03
2022-11-06T02:26:32.939Z,95315.63
2022-11-06T02:29:08.189Z,95312.78
2022-11-06T02:31:40.748Z,95324.72
2022-11-06T02:34:13.537Z,95317.91
2022-11-06T02:36:47.662Z,95325.91
2022-11-06T02:39:20.663Z,95330.31
2022-11-06T02:41:50.905Z,95329.13
2022-11-06T02:44:24.300Z,95326.75
2022-11-06T02:46:54.855Z,95318.75
2022-11-06T02:49:29.632Z,95322.13
2022-11-06T02:52:02.228Z,95325.09
2022-11-06T02:54:33.269Z,95320.34
2022-11-06T02:57:08.299Z,95316.38
2022-11-06T02:59:46.084Z,95317.06
2022-11-06T03:02:21.298Z,95314.84
2022-11-06T03:04:54.451Z,95327.34
2022-11-06T03:07:29.927Z,95322.91
2022-11-06T03:09:58.633Z,95325.97
2022-11-06T03:12:30.732Z,95321.03
2022-11-06T03:15:07.966Z,95313.84
2022-11-06T03:17:42.593Z,95311.13
2022-11-06T03:20:22.612Z,95311.69
2022-11-06T03:22:55.978Z,95319.41
2022-11-06T03:25:28.206Z,95321.38
2022-11-06T03:28:05.299Z,95321.78
2022-11-06T03:30:41.606Z,95333.28
2022-11-06T03:33:16.384Z,95332.81
2022-11-06T03:35:48.421Z,95335.56
2022-11-06T03:38:21.645Z,95326.78
2022-11-06T03:40:54.100Z,95324.44
2022-11-06T03:43:25.649Z,95315.28
2022-11-06T03:45:58.003Z,95320.50
2022-11-06T03:48:32.698Z,95315.28
2022-11-06T03:51:05.994Z,95305.72
2022-11-06T03:53:41.615Z,95298.16
2022-11-06T03:56:14.803Z,95305.53
2022-11-06T03:58:47.732Z,95303.28
2022-11-06T04:01:23.038Z,95305.69
2022-11-06T04:03:55.671Z,95305.31
2022-11-06T04:06:28.323Z,95311.31
2022-11-06T04:09:18.219Z,95310.75
2022-11-06T04:12:05.088Z,95304.22
2022-11-06T04:14:35.346Z,95311.31
2022-11-06T04:17:08.316Z,95321.69
2022-11-06T04:19:36.355Z,95337.25
2022-11-06T04:22:23.512Z,95340.03
2022-11-06T04:25:22.161Z,95349.13
2022-11-06T04:28:03.771Z,95350.34
2022-11-06T04:30:36.538Z,95344.78
2022-11-06T04:33:12.482Z,95338.84
2022-11-06T04:35:52.244Z,95338.09
2022-11-06T04:38:27.997Z,95329.75
2022-11-06T04:41:02.639Z,95319.34
2022-11-06T04:43:36.763Z,95310.59
2022-11-06T04:46:08.371Z,95312.13
2022-11-06T04:48:39.447Z,95309.34
2022-11-06T04:51:11.457Z,95305.75
2022-11-06T04:53:41.240Z,95300.84
2022-11-06T04:56:13.447Z,95293.66
2022-11-06T04:58:42.764Z,95277.50
2022-11-06T05:01:11.202Z,95277.13
2022-11-06T05:03:40.596Z,95273.94
2022-11-06T05:06:08.540Z,95270.75
2022-11-06T05:08:36.551Z,95283.13
2022-11-06T05:11:04.494Z,95271.56
2022-11-06T05:13:32.460Z,95264.78
2022-11-06T05:16:01.226Z,95269.72
2022-11-06T05:18:29.437Z,95273.13
2022-11-06T05:21:19.336Z,95265.53
2022-11-06T05:23:47.885Z,95263.56
2022-11-06T05:26:16.043Z,95274.31
2022-11-06T05:28:44.031Z,95256.31
2022-11-06T05:31:12.205Z,95251.97
2022-11-06T05:33:40.220Z,95252.13
2022-11-06T05:36:10.351Z,95247.50
2022-11-06T05:38:38.242Z,95256.28
2022-11-06T05:41:06.486Z,95252.28
2022-11-06T05:43:34.443Z,95258.25
2022-11-06T05:46:02.342Z,95246.72
2022-11-06T05:48:30.802Z,95245.94
2022-11-06T05:51:01.885Z,95236.97
2022-11-06T05:53:31.340Z,95239.53
2022-11-06T05:55:59.270Z,95236.72
2022-11-06T05:58:27.622Z,95227.59
2022-11-06T06:00:56.473Z,95222.00
2022-11-06T06:03:25.439Z,95215.47
2022-11-06T06:05:53.722Z,95203.50
2022-11-06T06:08:21.680Z,95205.28
2022-11-06T06:10:51.069Z,95210.44
2022-11-06T06:13:19.027Z,95198.81
2022-11-06T06:15:47.215Z,95203.47
2022-11-06T06:18:15.507Z,95200.47
2022-11-06T06:20:43.594Z,95200.41
2022-11-06T06:23:12.117Z,95201.94
2022-11-06T06:25:40.033Z,95210.78
2022-11-06T06:28:09.354Z,95211.56
2022-11-06T06:30:37.522Z,95216.94
2022-11-06T06:33:06.533Z,95211.56
2022-11-06T06:35:35.076Z,95218.00
2022-11-06T06:38:03.004Z,95216.00
2022-11-06T06:40:30.946Z,95219.59
2022-11-06T06:42:59.572Z,95225.97
2022-11-06T06:45:28.928Z,95228.78
2022-11-06T06:47:57.113Z,95227.00
2022-11-06T06:50:25.131Z,95231.19
2022-11-06T06:52:56.662Z,95224.81
2022-11-06T06:55:25.007Z,95223.22
2022-11-06T06:57:58.490Z,95232.41
2022-11-06T07:00:29.007Z,95216.06
2022-11-06T07:02:57.058Z,95215.72
2022-11-06T07:05:25.495Z,95224.81
2022-11-06T07:07:53.418Z,95218.09
2022-11-06T07:10:21.305Z,95220.16
2022-11-06T07:12:49.292Z,95214.97
2022-11-06T07:15:17.323Z,95220.63
2022-11-06T07:17:46.643Z,95218.00
2022-11-06T07:20:14.625Z,95219.03
2022-11-06T07:22:42.550Z,95221.72
2022-11-06T07:25:10.867Z,95221.75
2022-11-06T07:27:38.952Z,95215.97
2022-11-06T07:30:08.034Z,95218.94
2022-11-06T07:32:35.978Z,95216.22
2022-11-06T07:35:06.001Z,95210.16
2022-11-06T07:37:33.890Z,95207.44
2022-11-06T07:40:01.789Z,95196.06
2022-11-06T07:42:29.873Z,95199.25
2022-11-06T07:45:02.980Z,95196.47
2022-11-06T07:47:31.099Z,95199.88
2022-11-06T07:49:59.012Z,95197.06
2022-11-06T07:52:28.325Z,95198.69
2022-11-06T07:54:56.232Z,95206.66
2022-11-06T07:57:24.222Z,95205.44
2022-11-06T07:59:52.120Z,95201.41
2022-11-06T08:02:21.111Z,95199.41
2022-11-06T08:04:49.187Z,95199.97
2022-11-06T08:07:17.114Z,95208.19
2022-11-06T08:09:46.463Z,95204.47
2022-11-06T08:12:15.202Z,95210.28
2022-11-06T08:14:43.148Z,95212.72
2022-11-06T08:17:11.058Z,95211.53
2022-11-06T08:19:39.034Z,95223.53
2022-11-06T08:22:06.935Z,95228.38
2022-11-06T08:24:34.964Z,95220.78
2022-11-06T08:27:04.291Z,95215.19
2022-11-06T08:29:34.838Z,95210.03
2022-11-06T08:32:06.773Z,95192.03
2022-11-06T08:34:35.692Z,95182.66
2022-11-06T08:37:03.625Z,95178.47
2022-11-06T08:39:31.780Z,95179.69
2022-11-06T08:41:59.710Z,95173.84
2022-11-06T08:44:28.982Z,95185.25
2022-11-06T08:46:56.860Z,95194.81
2022-11-06T08:49:24.845Z,95199.22
2022-11-06T08:51:53.895Z,95189.25
2022-11-06T08:54:21.935Z,95190.84
2022-11-06T08:56:49.973Z,95177.66
2022-11-06T08:59:17.911Z,95171.69
2022-11-06T09:01:47.311Z,95175.06
2022-11-06T09:04:15.290Z,95172.06
2022-11-06T09:06:43.155Z,95164.44
2022-11-06T09:09:11.092Z,95154.03
2022-11-06T09:11:38.987Z,95165.22
2022-11-06T09:14:06.906Z,95163.63
2022-11-06T09:16:34.834Z,95153.22
2022-11-06T09:19:04.420Z,95151.22
2022-11-06T09:21:32.716Z,95157.22
2022-11-06T09:24:00.641Z,95156.03
2022-11-06T09:26:28.593Z,95155.66
2022-11-06T09:28:56.667Z,95164.44
2022-11-06T09:31:24.582Z,95169.25
2022-11-06T09:33:52.510Z,95157.44
2022-11-06T09:36:21.806Z,95165.22
2022-11-06T09:38:49.796Z,95154.41
2022-11-06T09:41:24.342Z,95153.56
2022-11-06T09:44:12.093Z,95163.53
2022-11-06T09:46:43.597Z,95172.34
2022-11-06T09:49:23.683Z,95161.09
2022-11-06T09:51:59.539Z,95168.72
2022-11-06T09:54:32.176Z,95177.09
2022-11-06T09:57:05.930Z,95180.13
2022-11-06T09:59:38.069Z,95183.91
2022-11-06T10:02:25.141Z,95187.84
2022-11-06T10:05:01.772Z,95191.50
2022-11-06T10:07:34.498Z,95197.09
2022-11-06T10:10:04.108Z,95196.31
2022-11-06T10:12:41.390Z,95196.66
2022-11-06T10:15:22.285Z,95173.38
2022-11-06T10:17:58.042Z,95172.47
2022-11-06T10:20:32.009Z,95170.63
2022-11-06T10:23:06.695Z,95178.09
2022-11-06T10:25:46.198Z,95156.66
2022-11-06T10:28:27.770Z,95147.19
2022-11-06T10:31:04.683Z,95154.41
2022-11-06T10:33:49.951Z,95145.28
2022-11-06T10:36:21.351Z,95137.56
2022-11-06T10:38:53.270Z,95129.53
2022-11-06T10:41:26.110Z,95132.84
2022-11-06T10:43:58.535Z,95139.59
2022-11-06T10:46:31.238Z,95139.16
2022-11-06T10:49:01.671Z,95130.31
2022-11-06T10:51:48.775Z,95128.28
2022-11-06T10:54:32.199Z,95119.91
2022-11-06T10:57:17.171Z,95112.66
2022-11-06T10:59:45.454Z,95119.22
2022-11-06T11:02:26.370Z,95126.59
2022-11-06T11:04:57.985Z,95120.50
2022-11-06T11:07:27.580Z,95122.97
2022-11-06T11:09:56.882Z,95121.88
2022-11-06T11:12:28.530Z,95121.09
2022-11-06T11:15:11.766Z,95113.41
2022-11-06T11:17:40.838Z,95115.00
2022-11-06T11:20:31.353Z,95102.78
2022-11-06T11:23:14.484Z,95098.50
2022-11-06T11:25:46.029Z,95092.59
2022-11-06T11:28:26.580Z,95083.47
2022-11-06T11:30:56.861Z,95079.13
2022-11-06T11:33:27.219Z,95080.34
2022-11-06T11:35:55.663Z,95066.22
2022-11-06T11:38:25.917Z,95061.31
2022-11-06T11:41:08.028Z,95052.28
2022-11-06T11:43:36.361Z,95055.78
2022-11-06T11:46:18.849Z,95053.44
2022-11-06T11:48:48.733Z,95046.75
2022-11-06T11:51:31.682Z,95037.50
2022-11-06T11:54:06.016Z,95034.16
2022-11-06T11:57:03.582Z,95044.78
2022-11-06T11:59:35.764Z,95037.31
2022-11-06T12:02:13.797Z,95036.19
2022-11-06T12:04:44.302Z,95030.41
2022-11-06T12:07:24.013Z,95033.50
2022-11-06T12:09:52.262Z,95030.91
2022-11-06T12:12:25.108Z,95023.47
2022-11-06T12:15:21.235Z,95027.16
2022-11-06T12:17:55.724Z,95019.66
2022-11-06T12:20:28.219Z,95013.84
2022-11-06T12:22:59.095Z,95015.94
2022-11-06T12:25:31.945Z,95016.97
2022-11-06T12:28:03.420Z,95018.91
2022-11-06T12:30:34.662Z,95013.22
2022-11-06T12:33:07.438Z,95013.00
2022-11-06T12:35:39.299Z,95021.56
2022-11-06T12:38:20.477Z,95008.41
2022-11-06T12:40:52.467Z,95012.25
2022-11-06T12:43:30.282Z,95013.84
2022-11-06T12:46:16.940Z,95020.31
2022-11-06T12:49:08.230Z,95026.97
2022-11-06T12:51:49.297Z,95029.41
2022-11-06T12:54:40.010Z,95026.66
2022-11-06T12:57:17.368Z,95020.75
2022-11-06T13:00:01.975Z,95006.22
2022-11-06T13:02:48.123Z,95009.09
2022-11-06T13:05:21.050Z,95009.25
2022-11-06T13:08:16.663Z,95007.31
2022-11-06T13:10:56.381Z,95002.56
2022-11-06T13:13:36.135Z,95002.09
2022-11-06T13:16:17.362Z,94996.75
2022-11-06T13:18:53.225Z,94996.75
2022-11-06T13:21:32.774Z,94999.94
2022-11-06T13:24:05.267Z,94992.81
2022-11-06T13:26:38.542Z,94988.28
2022-11-06T13:29:11.943Z,94985.00
2022-11-06T13:31:44.087Z,94993.84
2022-11-06T13:34:19.930Z,94999.19
2022-11-06T13:36:48.414Z,94996.94
2022-11-06T13:39:20.951Z,94988.78
2022-11-06T13:41:48.907Z,95002.41
2022-11-06T13:44:18.096Z,95002.16
2022-11-06T13:46:57.980Z,94998.53
2022-11-06T13:49:33.094Z,95004.34
2022-11-06T13:52:02.749Z,94998.44
2022-11-06T13:54:49.746Z,95012.84
2022-11-06T13:57:52.531Z,95003.81
2022-11-06T14:00:22.193Z,95022.13
2022-11-06T14:03:27.745Z,95013.97
2022-11-06T14:06:01.963Z,95021.00
2022-11-06T14:08:34.537Z,95022.81
2022-11-06T14:11:07.447Z,95022.34
2022-11-06T14:13:36.912Z,95015.94
2022-11-06T14:16:08.822Z,95008.38
2022-11-06T14:18:37.025Z,95012.34
2022-11-06T14:21:50.860Z,95001.91
2022-11-06T14:24:32.392Z,95003.22
2022-11-06T14:27:02.242Z,95002.38
2022-11-06T14:29:57.839Z,95011.66
2022-11-06T14:32:57.673Z,95004.84
2022-11-06T14:35:50.641Z,95007.84
2022-11-06T14:38:36.177Z,95004.50
2022-11-06T14:41:31.781Z,95007.22
2022-11-06T14:44:02.640Z,95014.38
2022-11-06T14:46:32.038Z,95002.75
2022-11-06T14:49:11.939Z,94998.22
2022-11-06T14:51:39.915Z,95008.34
2022-11-06T14:54:24.427Z,95021.53
2022-11-06T14:56:54.139Z,95023.22
2022-11-06T14:59:32.193Z,95016.78
2022-11-06T15:02:05.791Z,95016.22
2022-11-06T15:04:36.300Z,95005.41
2022-11-06T15:07:12.110Z,95008.72
2022-11-06T15:09:47.800Z,95011.66
2022-11-06T15:12:15.764Z,95027.69
2022-11-06T15:15:08.565Z,95035.34
2022-11-06T15:17:37.536Z,95035.22
2022-11-06T15:20:28.147Z,95033.63
2022-11-06T15:23:16.484Z,95031.91
2022-11-06T15:25:55.961Z,95036.25
2022-11-06T15:28:27.157Z,95033.50
2022-11-06T15:31:01.781Z,95034.78
2022-11-06T15:33:33.473Z,95038.66
2022-11-06T15:36:06.542Z,95031.00
2022-11-06T15:38:42.226Z,95030.34
2022-11-06T15:41:15.914Z,95031.25
2022-11-06T15:43:46.301Z,95038.06
2022-11-06T15:46:22.618Z,95032.38
2022-11-06T15:49:05.826Z,95013.19
2022-11-06T15:51:34.087Z,95016.91
2022-11-06T15:54:02.639Z,95027.38
2022-11-06T15:56:33.447Z,95031.56
2022-11-06T15:59:10.514Z,95031.00
2022-11-06T16:01:40.330Z,95044.28
2022-11-06T16:04:16.076Z,95042.47
2022-11-06T16:06:45.641Z,95047.56
2022-11-06T16:09:18.931Z,95047.69
2022-11-06T16:11:48.773Z,95046.19
2022-11-06T16:14:17.507Z,95041.41
2022-11-06T16:16:49.403Z,95046.63
2022-11-06T16:19:34.415Z,95054.81
2022-11-06T16:22:07.479Z,95062.06
2022-11-06T16:24:42.490Z,95069.88
2022-11-06T16:27:11.470Z,95060.47
2022-11-06T16:29:40.486Z,95068.94
2022-11-06T16:32:16.484Z,95081.34
2022-11-06T16:34:46.772Z,95071.34
2022-11-06T16:37:46.987Z,95070.91
2022-11-06T16:40:48.970Z,95072.56
2022-11-06T16:43:18.929Z,95068.94
2022-11-06T16:45:55.715Z,95068.16
2022-11-06T16:48:32.174Z,95072.94
2022-11-06T16:51:01.727Z,95088.59
2022-11-06T16:53:31.744Z,95088.59
2022-11-06T16:56:01.537Z,95090.66
2022-11-06T16:58:31.759Z,95085.44
2022-11-06T17:01:02.554Z,95094.84
2022-11-06T17:03:39.081Z,95100.69
2022-11-06T17:06:08.431Z,95114.72
2022-11-06T17:08:38.416Z,95123.69
2022-11-06T17:11:21.801Z,95126.59
2022-11-06T17:13:51.576Z,95132.41
2022-11-06T17:16:21.804Z,95142.41
2022-11-06T17:18:51.813Z,95148.41
2022-11-06T17:21:21.475Z,95154.88
2022-11-06T17:23:50.137Z,95160.44
2022-11-06T17:26:21.471Z,95164.88
2022-11-06T17:28:49.584Z,95173.72
2022-11-06T17:31:19.313Z,95180.53
2022-11-06T17:33:47.590Z,95152.53
2022-11-06T17:36:19.408Z,95160.34
2022-11-06T17:38:47.894Z,95190.25
2022-11-06T17:41:29.723Z,95194.03
2022-11-06T17:43:58.743Z,95190.31
2022-11-06T17:46:28.246Z,95188.63
2022-11-06T17:48:57.036Z,95182.41
2022-11-06T17:51:44.739Z,95191.19
2022-11-06T17:54:13.189Z,95200.97
2022-11-06T17:56:41.604Z,95192.13
2022-11-06T17:59:09.825Z,95185.88
2022-11-06T18:01:38.018Z,95188.94
2022-11-06T18:04:07.314Z,95177.34
2022-11-06T18:06:37.003Z,95164.50
2022-11-06T18:09:08.489Z,95171.31
2022-11-06T18:11:36.503Z,95170.53
2022-11-06T18:14:05.065Z,95168.06
2022-11-06T18:16:37.502Z,95172.81
2022-11-06T18:19:08.477Z,95189.63
2022-11-06T18:21:38.314Z,95180.66
2022-11-06T18:24:07.379Z,95180.97
2022-11-06T18:26:37.224Z,95181.94
2022-11-06T18:29:05.450Z,95197.88
2022-11-06T18:31:33.604Z,95200.75
2022-11-06T18:34:01.721Z,95203.44
2022-11-06T18:36:29.630Z,95201.69
2022-11-06T18:38:58.905Z,95217.22
2022-11-06T18:41:26.873Z,95220.69
2022-11-06T18:43:57.947Z,95221.94
2022-11-06T18:46:27.835Z,95239.41
2022-11-06T18:48:56.788Z,95233.75
2022-11-06T18:51:35.248Z,95227.72
2022-11-06T18:54:07.925Z,95228.97
2022-11-06T18:56:37.368Z,95233.75
2022-11-06T18:59:06.307Z,95252.59
2022-11-06T19:01:35.834Z,95253.38
2022-11-06T19:04:04.861Z,95255.41
2022-11-06T19:06:33.398Z,95256.44
2022-11-06T19:09:01.342Z,95257.81
2022-11-06T19:11:30.635Z,95260.56
2022-11-06T19:13:58.625Z,95263.75
2022-11-06T19:16:26.738Z,95272.16
2022-11-06T19:21:30.021Z,95262.94
2022-11-06T19:24:03.386Z,95268.53
2022-11-06T19:26:34.614Z,95275.34
2022-11-06T19:29:03.193Z,95280.56
2022-11-06T19:31:31.841Z,95282.16
2022-11-06T19:34:00.598Z,95274.94
2022-11-06T19:36:28.683Z,95280.56
2022-11-06T19:38:57.438Z,95278.56
2022-11-06T19:41:25.659Z,95283.34
2022-11-06T19:43:55.303Z,95290.16
2022-11-06T19:46:28.248Z,95295.38
2022-11-06T19:48:59.153Z,95302.63
2022-11-06T19:51:27.048Z,95295.81
2022-11-06T19:53:55.641Z,95310.00
2022-11-06T19:56:23.971Z,95310.59
2022-11-06T19:58:54.009Z,95315.81
2022-11-06T20:01:22.658Z,95321.03
2022-11-06T20:03:50.905Z,95327.13
2022-11-06T20:06:19.203Z,95330.75
2022-11-06T20:08:49.188Z,95340.56
2022-11-06T20:11:18.003Z,95335.97
2022-11-06T20:13:46.805Z,95334.34
2022-11-06T20:16:18.068Z,95333.63
2022-11-06T20:18:50.991Z,95345.66
2022-11-06T20:21:19.329Z,95338.41
2022-11-06T20:23:47.277Z,95332.03
2022-11-06T20:26:15.449Z,95341.31
2022-11-06T20:28:43.761Z,95336.44
2022-11-06T20:31:13.037Z,95340.06
2022-11-06T20:33:42.416Z,95343.84
2022-11-06T20:36:11.627Z,95334.06
2022-11-06T20:38:39.585Z,95340.44
2022-11-06T20:41:08.219Z,95343.41
2022-11-06T20:43:36.222Z,95358.00
2022-11-06T20:46:05.188Z,95343.34
2022-11-06T20:48:34.046Z,95347.22
2022-11-06T20:51:05.284Z,95344.50
2022-11-06T20:53:34.025Z,95345.22
2022-11-06T20:56:03.743Z,95352.78
2022-11-06T20:58:33.029Z,95350.19
2022-11-06T21:01:02.556Z,95354.38
2022-11-06T21:03:30.677Z,95361.19
2022-11-06T21:05:58.634Z,95359.16
2022-11-06T21:08:28.976Z,95363.94
2022-11-06T21:11:00.806Z,95365.13
2022-11-06T21:13:33.664Z,95370.78
2022-11-06T21:16:03.103Z,95369.19
2022-11-06T21:18:31.510Z,95361.19
2022-11-06T21:21:03.182Z,95365.66
2022-11-06T21:23:32.505Z,95370.88
2022-11-06T21:26:05.926Z,95358.84
2022-11-06T21:28:34.518Z,95372.91
2022-11-06T21:31:02.511Z,95370.16
2022-11-06T21:33:30.686Z,95368.56
2022-11-06T21:36:05.962Z,95367.41
2022-11-06T21:38:36.282Z,95356.81
2022-11-06T21:41:07.539Z,95361.75
2022-11-06T21:43:35.914Z,95371.31
2022-11-06T21:46:04.751Z,95360.88
2022-11-06T21:48:45.735Z,95363.06
2022-11-06T21:51:16.181Z,95358.44
2022-11-06T21:54:03.324Z,95354.38
2022-11-06T21:56:31.453Z,95355.41
2022-11-06T21:59:00.834Z,95359.59
2022-11-06T22:01:29.756Z,95354.81
2022-11-06T22:03:57.871Z,95353.81
2022-11-06T22:06:27.411Z,95357.66
2022-11-06T22:08:59.023Z,95353.22
2022-11-06T22:11:28.726Z,95350.41
2022-11-06T22:13:58.801Z,95349.59
2022-11-06T22:16:29.061Z,95356.41
2022-11-06T22:18:57.349Z,95354.38
2022-11-06T22:21:27.037Z,95367.31
2022-11-06T22:23:57.146Z,95360.25
2022-11-06T22:26:26.869Z,95371.03
2022-11-06T22:28:56.098Z,95373.56
2022-11-06T22:31:24.593Z,95366.28
2022-11-06T22:33:54.068Z,95368.00
2022-11-06T22:36:23.625Z,95373.22
2022-11-06T22:38:51.659Z,95366.78
2022-11-06T22:41:22.473Z,95366.41
2022-11-06T22:43:50.928Z,95383.09
2022-11-06T22:46:20.963Z,95373.22
2022-11-06T22:48:49.554Z,95376.00
2022-11-06T22:51:19.549Z,95374.84
2022-11-06T22:53:47.483Z,95368.00
2022-11-06T22:56:15.451Z,95369.63
2022-11-06T22:58:45.143Z,95369.63
2022-11-06T23:01:13.808Z,95377.66
2022-11-06T23:03:42.065Z,95376.44
2022-11-06T23:06:11.123Z,95376.44
2022-11-06T23:08:45.542Z,95374.41
2022-11-06T23:11:17.245Z,95378.75
2022-11-06T23:13:46.627Z,95386.00
2022-11-06T23:16:17.177Z,95383.38
2022-11-06T23:18:45.844Z,95388.03
2022-11-06T23:21:15.028Z,95390.63
2022-11-06T23:23:43.552Z,95388.03
2022-11-06T23:26:13.239Z,95385.78
2022-11-06T23:28:41.520Z,95396.00
2022-11-06T23:31:12.425Z,95396.00
2022-11-06T23:33:40.576Z,95401.44
2022-11-06T23:36:09.693Z,95400.88
2022-11-06T23:38:38.011Z,95406.09
2022-11-06T23:41:28.425Z,95406.88
2022-11-06T23:43:57.644Z,95406.88
2022-11-06T23:46:27.270Z,95411.53
2022-11-06T23:48:55.264Z,95405.72
2022-11-06T23:51:24.095Z,95410.56
2022-11-06T23:53:52.282Z,95399.78
2022-11-06T23:56:20.227Z,95403.81
2022-11-06T23:58:48.158Z,95404.81
